Time;durP1;ratioP1;P1;durP2;ratioP2;P2;SDS_P1;SDS_P2;PMS_P1;PMS_P2;Temp;Humidity;BMP_temperature;BMP_pressure;BME280_temperature;BME280_humidity;BME280_pressure;Samples;Min_cycle;Max_cycle;Signal;HPM_P1;HPM_P2
2022/01/21 00:00:57;;;;;;;6.17;4.30;;;3.30;99.90;;;;;;5067323;28;20915;-48
2022/01/21 00:03:23;;;;;;;13.10;4.10;;;3.20;99.90;;;;;;5063590;28;20437;-47
2022/01/21 00:05:49;;;;;;;14.90;4.50;;;3.10;99.90;;;;;;5069931;28;20417;-48
2022/01/21 00:08:15;;;;;;;9.57;5.10;;;3.20;99.90;;;;;;5067682;28;20990;-48
2022/01/21 00:10:41;;;;;;;7.07;5.00;;;3.20;99.90;;;;;;5063756;28;20294;-47
2022/01/21 00:13:16;;;;;;;7.77;4.83;;;3.20;99.90;;;;;;5069649;28;20508;-49
2022/01/21 00:15:42;;;;;;;8.87;4.87;;;3.20;99.90;;;;;;5062829;28;20183;-49
2022/01/21 00:18:09;;;;;;;14.33;4.73;;;3.10;99.90;;;;;;5068399;28;20433;-49
2022/01/21 00:31:31;;;;;;;6.80;3.90;;;3.20;99.90;;;;;;5068748;28;20843;-52
2022/01/21 00:33:57;;;;;;;9.83;4.47;;;3.30;99.90;;;;;;5066935;28;20433;-49
2022/01/21 00:36:23;;;;;;;13.50;4.83;;;3.10;99.90;;;;;;5060976;28;20191;-48
2022/01/21 00:38:48;;;;;;;7.50;4.00;;;3.20;99.90;;;;;;5066834;28;20687;-50
2022/01/21 00:41:19;;;;;;;6.60;4.60;;;3.10;99.90;;;;;;5059955;28;20190;-48
2022/01/21 00:43:45;;;;;;;9.43;4.10;;;3.10;99.90;;;;;;5061415;28;20198;-48
2022/01/21 00:46:11;;;;;;;4.93;4.10;;;3.00;99.90;;;;;;5065453;28;20425;-49
2022/01/21 00:48:38;;;;;;;9.80;4.57;;;3.10;99.90;;;;;;5063287;28;20597;-48
2022/01/21 00:51:03;;;;;;;12.00;4.17;;;3.30;99.90;;;;;;5063855;28;20476;-49
2022/01/21 00:53:29;;;;;;;6.63;4.90;;;3.40;99.90;;;;;;5058154;28;20421;-50
2022/01/21 00:55:54;;;;;;;7.50;4.13;;;3.30;99.90;;;;;;5061905;28;20182;-50
2022/01/21 00:58:20;;;;;;;11.10;5.37;;;3.20;99.90;;;;;;5046324;28;20183;-52
2022/01/21 01:00:46;;;;;;;6.50;4.20;;;3.20;99.90;;;;;;5044028;28;20192;-48
2022/01/21 01:03:14;;;;;;;12.70;4.57;;;3.10;99.90;;;;;;5064710;28;20233;-48
2022/01/21 01:05:39;;;;;;;14.20;6.27;;;3.30;99.90;;;;;;5061216;28;20556;-50
2022/01/21 01:08:05;;;;;;;17.47;4.63;;;3.40;99.90;;;;;;5065886;28;20445;-48
2022/01/21 01:10:59;;;;;;;6.33;4.30;;;3.40;99.90;;;;;;5049609;28;20529;-49
2022/01/21 01:21:30;;;;;;;9.47;4.80;;;3.10;99.90;;;;;;5061272;28;20802;-50
2022/01/21 01:27:35;;;;;;;12.63;4.17;;;3.10;99.90;;;;;;5048738;28;20441;-49
2022/01/21 01:29:31;;;;;;;9.27;4.60;;;3.30;99.90;;;;;;5059872;28;20479;-50
2022/01/21 01:31:57;;;;;;;11.00;5.53;;;3.40;99.90;;;;;;5062153;28;20493;-48
2022/01/21 01:34:23;;;;;;;10.77;4.40;;;3.30;99.90;;;;;;5058416;28;20187;-50
2022/01/21 01:36:48;;;;;;;6.43;3.30;;;3.30;99.90;;;;;;5064593;28;20555;-50
2022/01/21 01:39:28;;;;;;;8.40;4.00;;;3.40;99.90;;;;;;5058886;28;20441;-49
2022/01/21 01:49:54;;;;;;;11.00;4.37;;;3.30;99.90;;;;;;5061647;28;20475;-48
2022/01/21 01:52:19;;;;;;;8.43;4.23;;;3.20;99.90;;;;;;5044053;28;20529;-48
2022/01/21 01:54:49;;;;;;;8.07;4.07;;;3.20;99.90;;;;;;5058744;28;20229;-51
2022/01/21 01:57:15;;;;;;;7.60;4.03;;;3.10;99.90;;;;;;5064734;28;20202;-49
2022/01/21 01:59:41;;;;;;;12.23;4.93;;;3.10;99.90;;;;;;5059886;28;20465;-49
2022/01/21 02:02:12;;;;;;;12.23;4.50;;;3.20;99.90;;;;;;5046833;28;20201;-47
2022/01/21 02:04:39;;;;;;;13.57;4.07;;;3.10;99.90;;;;;;5060214;28;20179;-52
2022/01/21 02:07:05;;;;;;;7.37;4.50;;;3.20;99.90;;;;;;5058474;28;20545;-49
2022/01/21 02:09:31;;;;;;;6.17;4.37;;;3.00;99.90;;;;;;5062745;28;20544;-53
2022/01/21 02:11:57;;;;;;;6.37;4.53;;;3.00;99.90;;;;;;5057444;28;20835;-48
2022/01/21 02:14:34;;;;;;;9.70;4.43;;;3.00;99.90;;;;;;5061760;28;20433;-50
2022/01/21 02:22:28;;;;;;;8.83;3.90;;;3.10;99.90;;;;;;5063969;28;20543;-48
2022/01/21 02:24:57;;;;;;;9.30;4.00;;;3.00;99.90;;;;;;5058943;28;20428;-50
2022/01/21 02:27:24;;;;;;;7.80;3.90;;;3.00;99.90;;;;;;5061052;28;20500;-47
2022/01/21 02:29:55;;;;;;;7.47;3.87;;;3.10;99.90;;;;;;5061827;28;20910;-48
2022/01/21 02:32:22;;;;;;;5.87;3.30;;;3.10;99.90;;;;;;5057134;28;20428;-49
2022/01/21 02:34:49;;;;;;;8.90;4.07;;;3.20;99.90;;;;;;5061518;28;20410;-48
2022/01/21 02:37:17;;;;;;;9.73;4.03;;;3.40;99.90;;;;;;5057952;28;20445;-47
2022/01/21 02:39:43;;;;;;;8.20;3.90;;;3.40;99.90;;;;;;5059953;28;20473;-52
2022/01/21 02:42:09;;;;;;;6.97;5.80;;;3.00;99.90;;;;;;5061184;28;20493;-48
2022/01/21 02:44:36;;;;;;;11.43;3.70;;;3.00;99.90;;;;;;5055782;28;20529;-49
2022/01/21 02:47:04;;;;;;;8.37;4.03;;;3.10;99.90;;;;;;5051993;28;20175;-48
2022/01/21 02:49:30;;;;;;;8.43;3.67;;;3.10;99.90;;;;;;5042411;28;20552;-50
2022/01/21 02:51:57;;;;;;;8.73;4.20;;;3.20;99.90;;;;;;5061142;28;20478;-56
2022/01/21 02:54:23;;;;;;;7.80;3.97;;;3.10;99.90;;;;;;5060918;28;20432;-53
2022/01/21 02:56:49;;;;;;;6.10;3.67;;;3.10;99.90;;;;;;5058378;28;20749;-52
2022/01/21 02:59:15;;;;;;;9.07;4.03;;;3.00;99.90;;;;;;5061462;28;20226;-48
2022/01/21 03:01:43;;;;;;;6.70;4.00;;;3.00;99.90;;;;;;5059115;28;20449;-49
2022/01/21 03:04:15;;;;;;;6.50;3.50;;;3.00;99.90;;;;;;5059595;28;20886;-51
2022/01/21 03:06:41;;;;;;;9.43;3.97;;;2.90;99.90;;;;;;5059015;28;20426;-49
2022/01/21 03:09:08;;;;;;;10.03;3.70;;;3.10;99.90;;;;;;5060079;28;20609;-49
2022/01/21 03:11:34;;;;;;;10.20;4.17;;;2.90;99.90;;;;;;5061038;28;20304;-48
2022/01/21 03:14:00;;;;;;;13.03;4.60;;;2.80;99.90;;;;;;5053994;28;20433;-50
2022/01/21 03:16:27;;;;;;;10.77;4.30;;;2.80;99.90;;;;;;5061861;28;20784;-50
2022/01/21 03:18:53;;;;;;;7.53;4.33;;;2.70;99.90;;;;;;5059155;28;20475;-48
2022/01/21 03:21:19;;;;;;;6.67;4.00;;;2.60;99.90;;;;;;5061111;28;20421;-51
2022/01/21 03:23:50;;;;;;;7.80;3.53;;;2.70;99.90;;;;;;5061212;28;20421;-49
2022/01/21 03:26:25;;;;;;;16.57;4.77;;;2.70;99.90;;;;;;5057443;28;20314;-50
2022/01/21 03:28:52;;;;;;;10.43;5.07;;;2.70;99.90;;;;;;5061342;28;20952;-51
2022/01/21 03:31:19;;;;;;;8.40;3.40;;;2.60;99.90;;;;;;5058897;28;20465;-50
2022/01/21 03:33:45;;;;;;;12.17;3.77;;;2.80;99.90;;;;;;5060931;28;20790;-47
2022/01/21 03:36:12;;;;;;;9.83;4.47;;;2.80;99.90;;;;;;5059595;28;20434;-49
2022/01/21 03:38:38;;;;;;;10.70;4.20;;;2.70;99.90;;;;;;5059559;28;20421;-51
2022/01/21 03:41:04;;;;;;;7.60;3.50;;;2.70;99.90;;;;;;5063583;28;20822;-49
2022/01/21 03:43:30;;;;;;;7.20;4.10;;;2.70;99.90;;;;;;5040422;28;20532;-49
2022/01/21 03:45:56;;;;;;;7.80;4.53;;;2.70;99.90;;;;;;5057621;28;20453;-51
2022/01/21 03:48:22;;;;;;;17.97;4.90;;;2.60;99.90;;;;;;5030064;28;20452;-49
2022/01/21 03:50:48;;;;;;;6.60;3.87;;;2.60;99.90;;;;;;5044674;28;20515;-50
2022/01/21 03:53:14;;;;;;;6.60;3.93;;;2.60;99.90;;;;;;5060284;28;20797;-51
2022/01/21 03:55:40;;;;;;;8.10;4.33;;;2.70;99.90;;;;;;5056027;28;20180;-48
2022/01/21 03:58:08;;;;;;;10.13;4.20;;;2.80;99.90;;;;;;5059725;28;20436;-49
2022/01/21 04:00:45;;;;;;;9.37;3.70;;;2.80;99.90;;;;;;5042750;28;20229;-50
2022/01/21 04:03:11;;;;;;;11.33;4.70;;;2.80;99.90;;;;;;5060248;28;20476;-52
2022/01/21 04:05:38;;;;;;;6.63;3.80;;;2.70;99.90;;;;;;5059455;28;20843;-49
2022/01/21 04:08:05;;;;;;;12.63;4.50;;;2.70;99.90;;;;;;5057497;28;20498;-49
2022/01/21 04:10:31;;;;;;;7.37;4.53;;;2.60;99.90;;;;;;5063451;28;20491;-50
2022/01/21 04:12:57;;;;;;;6.37;3.77;;;2.70;99.90;;;;;;5062116;28;20425;-49
2022/01/21 04:15:23;;;;;;;15.63;3.87;;;2.70;99.90;;;;;;5065290;28;20482;-50
2022/01/21 04:17:49;;;;;;;7.47;3.90;;;2.70;99.90;;;;;;5063139;28;20183;-53
2022/01/21 04:20:16;;;;;;;8.07;3.90;;;2.80;99.90;;;;;;5058795;28;20460;-51
2022/01/21 04:22:42;;;;;;;7.83;4.00;;;2.80;99.90;;;;;;5067403;28;20421;-49
2022/01/21 04:25:09;;;;;;;9.90;4.30;;;2.80;99.90;;;;;;5061292;28;20437;-52
2022/01/21 04:27:35;;;;;;;9.67;4.37;;;2.70;99.90;;;;;;5063228;28;20422;-49
2022/01/21 04:30:01;;;;;;;26.23;5.10;;;2.80;99.90;;;;;;5061147;28;20456;-49
2022/01/21 04:32:26;;;;;;;8.80;5.27;;;2.70;99.90;;;;;;5061982;28;20424;-51
2022/01/21 04:34:52;;;;;;;8.43;4.70;;;2.60;99.90;;;;;;5063962;28;20316;-48
2022/01/21 04:37:18;;;;;;;9.40;4.50;;;2.60;99.90;;;;;;5060260;28;20792;-50
2022/01/21 04:39:54;;;;;;;11.47;5.20;;;2.60;99.90;;;;;;5065045;28;20277;-48
2022/01/21 04:47:38;;;;;;;8.40;4.30;;;2.50;99.90;;;;;;5064428;28;20664;-55
2022/01/21 04:50:11;;;;;;;7.20;4.00;;;2.50;99.90;;;;;;5061703;28;20449;-51
2022/01/21 04:52:37;;;;;;;8.70;4.60;;;2.60;99.90;;;;;;5064128;28;20479;-51
2022/01/21 04:55:04;;;;;;;10.43;4.80;;;2.70;99.90;;;;;;5061011;28;20521;-48
2022/01/21 04:57:30;;;;;;;11.97;4.83;;;2.90;99.90;;;;;;5059908;28;20443;-49
2022/01/21 04:59:56;;;;;;;13.50;4.70;;;2.70;99.90;;;;;;5050503;28;20478;-50
2022/01/21 05:02:23;;;;;;;7.87;4.30;;;2.60;99.90;;;;;;5058248;28;20431;-51
2022/01/21 05:04:49;;;;;;;10.37;5.23;;;2.40;99.90;;;;;;5052041;28;20589;-48
2022/01/21 05:07:19;;;;;;;14.13;5.57;;;2.40;99.90;;;;;;5062040;28;20429;-47
2022/01/21 05:09:45;;;;;;;12.83;4.43;;;2.50;99.90;;;;;;5062081;28;20687;-49
2022/01/21 05:12:17;;;;;;;9.80;4.57;;;2.50;99.90;;;;;;5063616;28;20463;-51
2022/01/21 05:17:24;;;;;;;10.03;4.30;;;2.20;99.90;;;;;;5062399;28;21350;-48
2022/01/21 05:19:50;;;;;;;7.90;4.17;;;2.20;99.90;;;;;;5059831;28;20444;-48
2022/01/21 05:22:16;;;;;;;8.53;4.50;;;2.60;99.90;;;;;;5063610;28;20433;-48
2022/01/21 05:24:42;;;;;;;12.20;5.00;;;2.50;99.90;;;;;;5047405;28;20421;-48
2022/01/21 05:27:10;;;;;;;9.07;3.60;;;2.40;99.90;;;;;;5058810;28;20175;-47
2022/01/21 05:29:36;;;;;;;23.03;4.77;;;2.40;99.90;;;;;;5064763;28;20987;-51
2022/01/21 05:32:03;;;;;;;11.47;5.60;;;2.50;99.90;;;;;;5059748;28;20591;-50
2022/01/21 05:34:29;;;;;;;8.63;4.07;;;2.60;99.90;;;;;;5062733;28;20187;-47
2022/01/21 05:36:54;;;;;;;15.57;5.20;;;2.70;99.90;;;;;;5062209;28;20433;-51
2022/01/21 05:39:21;;;;;;;10.60;4.70;;;2.50;99.90;;;;;;5043257;28;20298;-50
2022/01/21 05:41:50;;;;;;;7.10;4.20;;;2.30;99.90;;;;;;5064917;28;20676;-51
2022/01/21 05:46:23;;;;;;;9.50;4.20;;;2.40;99.90;;;;;;5064744;28;20555;-52
2022/01/21 05:47:08;;;;;;;13.03;4.73;;;2.60;99.90;;;;;;5058488;28;20422;-50
2022/01/21 05:49:36;;;;;;;13.33;4.47;;;2.50;99.90;;;;;;5065826;28;20433;-47
2022/01/21 05:52:05;;;;;;;7.70;4.33;;;2.30;99.90;;;;;;5059897;28;20465;-49
2022/01/21 05:54:31;;;;;;;11.77;4.77;;;2.30;99.90;;;;;;5061193;28;20948;-50
2022/01/21 05:56:57;;;;;;;8.57;4.50;;;2.40;99.90;;;;;;5060735;28;20432;-50
2022/01/21 05:59:24;;;;;;;11.63;5.10;;;2.40;99.90;;;;;;5060986;28;20540;-51
2022/01/21 06:01:51;;;;;;;10.50;4.63;;;2.50;99.90;;;;;;5063815;28;20864;-50
2022/01/21 06:04:17;;;;;;;11.40;5.43;;;2.30;99.90;;;;;;5059942;28;20962;-50
2022/01/21 06:06:42;;;;;;;6.17;4.40;;;2.30;99.90;;;;;;5064016;28;20765;-48
2022/01/21 06:09:08;;;;;;;8.90;4.57;;;2.30;99.90;;;;;;5062443;28;20459;-51
2022/01/21 06:11:34;;;;;;;7.33;4.13;;;2.30;99.90;;;;;;5062385;28;20207;-50
2022/01/21 06:14:01;;;;;;;9.20;4.00;;;2.30;99.90;;;;;;5061737;28;20201;-51
2022/01/21 06:16:28;;;;;;;11.57;5.17;;;2.40;99.90;;;;;;5057469;28;20420;-49
2022/01/21 06:18:54;;;;;;;11.33;5.50;;;2.40;99.90;;;;;;5047042;28;20445;-48
2022/01/21 06:21:20;;;;;;;7.40;5.33;;;2.40;99.90;;;;;;5059607;28;20796;-49
2022/01/21 06:23:46;;;;;;;13.80;5.23;;;2.10;99.90;;;;;;5062769;28;20894;-50
2022/01/21 06:26:11;;;;;;;10.13;4.23;;;2.00;99.90;;;;;;5059127;28;20180;-51
2022/01/21 06:28:37;;;;;;;10.20;4.97;;;2.00;99.90;;;;;;5059529;28;20727;-50
2022/01/21 06:31:02;;;;;;;8.17;5.43;;;2.00;99.90;;;;;;5063242;28;20209;-48
2022/01/21 06:33:28;;;;;;;6.23;4.87;;;2.00;99.90;;;;;;5058017;28;20194;-49
2022/01/21 06:35:54;;;;;;;13.07;4.90;;;2.10;99.90;;;;;;5061379;28;20201;-49
2022/01/21 06:38:21;;;;;;;15.80;4.63;;;2.10;99.90;;;;;;5061765;28;20190;-50
2022/01/21 06:40:47;;;;;;;6.87;4.90;;;2.20;99.90;;;;;;5060625;28;20200;-49
2022/01/21 06:43:13;;;;;;;7.87;3.80;;;2.30;99.90;;;;;;5062723;28;20471;-49
2022/01/21 06:45:40;;;;;;;8.97;5.47;;;2.50;99.90;;;;;;5042920;28;20444;-51
2022/01/21 06:48:06;;;;;;;7.17;4.37;;;2.50;99.90;;;;;;5057766;28;20459;-52
2022/01/21 06:50:34;;;;;;;10.63;4.80;;;2.40;99.90;;;;;;5047417;28;20470;-46
2022/01/21 06:52:59;;;;;;;14.80;5.43;;;2.20;99.90;;;;;;5045426;28;20496;-50
2022/01/21 06:55:25;;;;;;;11.50;4.30;;;2.30;99.90;;;;;;5061803;28;20545;-46
2022/01/21 06:57:51;;;;;;;11.40;5.23;;;2.30;99.90;;;;;;5058463;28;20559;-50
2022/01/21 07:00:19;;;;;;;10.97;5.47;;;2.40;99.90;;;;;;5052216;28;20311;-48
2022/01/21 07:02:53;;;;;;;8.13;4.80;;;2.50;99.90;;;;;;5061467;28;20175;-55
2022/01/21 07:05:22;;;;;;;12.37;5.03;;;2.50;99.90;;;;;;5054928;28;20434;-51
2022/01/21 07:07:48;;;;;;;7.47;4.93;;;2.40;99.90;;;;;;5064858;28;20815;-49
2022/01/21 07:10:15;;;;;;;13.60;5.50;;;2.30;99.90;;;;;;5059443;28;20526;-48
2022/01/21 07:12:41;;;;;;;8.83;4.43;;;2.30;99.90;;;;;;5059863;28;20793;-47
2022/01/21 07:15:09;;;;;;;9.20;4.07;;;2.30;99.90;;;;;;5059062;28;20434;-48
2022/01/21 07:17:35;;;;;;;10.30;5.10;;;2.20;99.90;;;;;;5057202;28;20596;-47
2022/01/21 07:20:03;;;;;;;8.43;3.83;;;2.20;99.90;;;;;;5061244;28;20459;-51
2022/01/21 07:22:28;;;;;;;10.60;5.00;;;2.30;99.90;;;;;;5059601;28;20446;-52
2022/01/21 07:24:54;;;;;;;7.80;4.10;;;2.30;99.90;;;;;;5041888;28;20429;-50
2022/01/21 07:27:20;;;;;;;8.80;4.70;;;2.20;99.90;;;;;;5058840;28;20186;-49
2022/01/21 07:29:45;;;;;;;11.80;4.80;;;2.30;99.90;;;;;;5060296;28;20225;-47
2022/01/21 07:32:11;;;;;;;9.63;4.00;;;2.40;99.90;;;;;;5061957;28;20203;-48
2022/01/21 07:34:37;;;;;;;7.40;4.10;;;2.40;99.90;;;;;;5056766;28;20192;-48
2022/01/21 07:37:03;;;;;;;7.00;4.13;;;2.40;99.90;;;;;;5059953;28;21001;-50
2022/01/21 07:39:29;;;;;;;13.63;5.27;;;2.40;99.90;;;;;;5058488;28;20603;-48
2022/01/21 07:41:54;;;;;;;10.33;5.40;;;2.50;99.90;;;;;;5060342;28;20435;-51
2022/01/21 07:44:20;;;;;;;9.37;4.57;;;2.40;99.90;;;;;;5062214;28;20176;-51
2022/01/21 07:46:47;;;;;;;14.60;5.70;;;2.40;99.90;;;;;;5042249;28;20788;-50
2022/01/21 07:49:13;;;;;;;13.03;5.00;;;2.50;99.90;;;;;;5067533;28;20455;-51
2022/01/21 07:51:39;;;;;;;8.07;5.30;;;2.60;99.90;;;;;;5065539;28;20999;-50
2022/01/21 07:54:05;;;;;;;8.47;5.03;;;2.60;99.90;;;;;;5066121;28;20441;-49
2022/01/21 07:56:34;;;;;;;10.63;4.83;;;2.70;99.90;;;;;;5064379;28;20214;-50
2022/01/21 07:59:03;;;;;;;11.17;5.50;;;2.70;99.90;;;;;;5064620;28;20459;-47
2022/01/21 08:01:28;;;;;;;18.33;4.60;;;2.70;99.90;;;;;;5067279;28;20799;-51
2022/01/21 08:03:54;;;;;;;12.93;5.73;;;2.80;99.90;;;;;;5058678;28;20450;-47
2022/01/21 08:06:20;;;;;;;10.13;4.37;;;2.80;99.90;;;;;;5066466;28;20206;-47
2022/01/21 08:08:45;;;;;;;8.60;4.53;;;2.70;99.90;;;;;;5064611;28;20214;-47
2022/01/21 08:11:11;;;;;;;9.37;4.80;;;2.70;99.90;;;;;;5061990;28;20213;-49
2022/01/21 08:13:36;;;;;;;15.03;5.67;;;2.60;99.90;;;;;;5061103;28;20182;-51
2022/01/21 08:16:03;;;;;;;12.13;6.00;;;2.50;99.90;;;;;;5063038;28;20279;-48
2022/01/21 08:18:29;;;;;;;8.23;5.07;;;2.50;99.90;;;;;;5065041;28;20217;-51
2022/01/21 08:20:55;;;;;;;13.57;5.30;;;2.60;99.90;;;;;;5064068;28;20439;-48
2022/01/21 08:23:21;;;;;;;11.10;5.03;;;2.70;99.90;;;;;;5063449;28;20198;-52
2022/01/21 08:25:47;;;;;;;9.53;5.20;;;2.60;99.90;;;;;;5065911;28;20186;-48
2022/01/21 08:28:13;;;;;;;10.97;5.37;;;2.60;99.90;;;;;;5062562;28;20942;-49
2022/01/21 08:30:39;;;;;;;13.67;5.23;;;2.50;99.90;;;;;;5062667;28;20223;-48
2022/01/21 08:33:05;;;;;;;9.40;5.33;;;2.50;99.90;;;;;;5066821;28;20427;-49
2022/01/21 08:35:32;;;;;;;13.23;6.37;;;2.50;99.90;;;;;;5059834;28;20438;-50
2022/01/21 08:37:58;;;;;;;11.03;5.00;;;2.60;99.90;;;;;;5066670;28;20425;-53
2022/01/21 08:40:25;;;;;;;9.43;5.40;;;2.60;99.90;;;;;;5062453;28;20461;-51
2022/01/21 08:42:50;;;;;;;14.00;6.07;;;2.60;99.90;;;;;;5049936;28;20432;-50
2022/01/21 08:45:16;;;;;;;8.03;5.60;;;2.50;99.90;;;;;;5061138;28;20889;-47
2022/01/21 08:47:42;;;;;;;12.93;6.57;;;2.60;99.90;;;;;;5064281;28;20757;-51
2022/01/21 08:50:11;;;;;;;12.53;7.17;;;2.60;99.90;;;;;;5066074;28;20458;-47
2022/01/21 08:52:38;;;;;;;8.30;4.93;;;2.60;99.90;;;;;;5060197;28;20432;-49
2022/01/21 08:55:09;;;;;;;11.13;5.73;;;2.60;99.90;;;;;;5062083;28;20421;-50
2022/01/21 08:57:37;;;;;;;9.63;6.20;;;2.60;99.90;;;;;;5062111;28;20483;-51
2022/01/21 09:00:12;;;;;;;9.03;5.50;;;2.50;99.90;;;;;;5045731;28;20461;-49
2022/01/21 09:02:37;;;;;;;10.37;5.40;;;2.60;99.90;;;;;;5063604;28;20413;-51
2022/01/21 09:05:03;;;;;;;12.33;5.70;;;2.60;99.90;;;;;;5062599;28;20494;-52
2022/01/21 09:07:29;;;;;;;17.70;5.80;;;2.50;99.90;;;;;;5065311;28;20457;-47
2022/01/21 09:09:55;;;;;;;10.57;5.77;;;2.60;99.90;;;;;;5061867;28;20831;-51
2022/01/21 09:12:21;;;;;;;12.87;5.90;;;2.70;99.90;;;;;;5063771;28;20221;-48
2022/01/21 09:14:47;;;;;;;12.67;5.47;;;2.60;99.90;;;;;;5061608;28;20183;-47
2022/01/21 09:17:13;;;;;;;8.43;5.30;;;2.70;99.90;;;;;;5059459;28;20614;-51
2022/01/21 09:19:39;;;;;;;18.47;6.37;;;2.70;99.90;;;;;;5062969;28;20502;-47
2022/01/21 09:22:05;;;;;;;8.90;5.10;;;2.90;99.90;;;;;;5061267;28;20461;-48
2022/01/21 09:24:32;;;;;;;13.50;4.63;;;2.90;99.90;;;;;;5060234;28;20194;-47
2022/01/21 09:26:59;;;;;;;7.87;5.73;;;3.00;99.90;;;;;;5063241;28;20658;-48
2022/01/21 09:29:25;;;;;;;12.53;5.80;;;3.00;99.90;;;;;;5060476;28;20566;-48
2022/01/21 09:31:51;;;;;;;10.07;5.00;;;3.10;99.90;;;;;;5063409;28;20546;-49
2022/01/21 09:34:17;;;;;;;14.63;5.67;;;3.00;99.90;;;;;;5058349;28;20579;-51
2022/01/21 09:36:42;;;;;;;11.27;5.43;;;3.00;99.90;;;;;;5065777;28;20194;-51
2022/01/21 09:39:09;;;;;;;14.00;6.03;;;3.10;99.90;;;;;;5040865;28;20642;-49
2022/01/21 09:41:35;;;;;;;10.83;5.70;;;3.20;99.90;;;;;;5061232;28;20541;-50
2022/01/21 09:44:03;;;;;;;11.53;6.57;;;3.30;99.90;;;;;;5063683;28;20432;-51
2022/01/21 09:46:35;;;;;;;12.57;6.50;;;3.30;99.90;;;;;;5060888;28;20206;-49
2022/01/21 09:49:08;;;;;;;10.90;7.10;;;3.20;99.90;;;;;;5062237;28;20913;-47
2022/01/21 09:51:37;;;;;;;14.07;6.43;;;3.30;99.90;;;;;;5059770;28;20452;-50
2022/01/21 09:54:07;;;;;;;12.00;5.90;;;3.30;99.90;;;;;;5058717;28;20489;-51
2022/01/21 09:56:37;;;;;;;9.70;5.73;;;3.10;99.90;;;;;;5062690;28;20421;-50
2022/01/21 09:59:03;;;;;;;11.70;5.10;;;3.10;99.90;;;;;;5043002;28;20832;-47
2022/01/21 10:01:29;;;;;;;13.90;6.67;;;3.20;99.90;;;;;;5047948;28;20422;-48
2022/01/21 10:03:54;;;;;;;9.50;5.97;;;3.10;99.90;;;;;;5060391;28;20191;-50
2022/01/21 10:06:25;;;;;;;11.67;6.10;;;3.10;99.90;;;;;;5057891;28;20922;-53
2022/01/21 10:08:54;;;;;;;15.97;7.27;;;3.20;99.90;;;;;;5062342;28;20219;-51
2022/01/21 10:11:20;;;;;;;11.70;6.17;;;3.30;99.90;;;;;;5057759;28;20464;-47
2022/01/21 10:13:48;;;;;;;11.90;7.13;;;3.30;99.90;;;;;;5060091;28;20851;-48
2022/01/21 10:16:14;;;;;;;20.83;6.57;;;3.40;99.90;;;;;;5060958;28;20422;-49
2022/01/21 10:19:00;;;;;;;11.07;7.90;;;3.50;99.90;;;;;;5043634;28;20454;-49
2022/01/21 10:21:44;;;;;;;15.70;6.80;;;3.50;99.90;;;;;;5062629;28;20183;-49
2022/01/21 10:24:13;;;;;;;9.30;6.33;;;3.70;99.90;;;;;;5046492;28;20436;-48
2022/01/21 10:26:48;;;;;;;12.90;6.13;;;3.60;99.90;;;;;;5061375;28;20437;-53
2022/01/21 10:29:14;;;;;;;10.23;6.17;;;3.70;99.90;;;;;;5061769;28;20845;-50
2022/01/21 10:31:57;;;;;;;15.07;5.57;;;3.70;99.90;;;;;;5055608;28;20481;-53
2022/01/21 10:34:43;;;;;;;13.60;7.33;;;3.50;99.90;;;;;;5059719;28;20479;-52
2022/01/21 10:37:29;;;;;;;8.90;5.50;;;3.60;99.90;;;;;;5062163;28;20933;-49
2022/01/21 10:40:00;;;;;;;11.80;6.23;;;3.60;99.90;;;;;;5044645;28;20461;-51
2022/01/21 10:42:27;;;;;;;10.90;5.83;;;3.60;99.90;;;;;;5053780;28;20432;-50
2022/01/21 10:44:53;;;;;;;11.53;5.50;;;3.60;99.90;;;;;;5061360;28;20494;-51
2022/01/21 10:47:29;;;;;;;11.77;6.40;;;3.70;99.90;;;;;;5061318;28;20456;-50
2022/01/21 10:50:29;;;;;;;16.90;5.63;;;3.80;99.90;;;;;;5061807;28;20206;-50
2022/01/21 10:52:54;;;;;;;9.40;5.03;;;3.90;99.90;;;;;;5027784;28;21006;-48
2022/01/21 10:55:38;;;;;;;7.67;5.03;;;3.80;99.90;;;;;;5056687;28;20532;-50
2022/01/21 10:58:12;;;;;;;12.70;5.57;;;3.90;99.90;;;;;;5061868;28;20186;-52
2022/01/21 11:00:59;;;;;;;13.90;5.70;;;3.80;99.90;;;;;;5060116;28;20559;-50
2022/01/21 11:03:25;;;;;;;10.97;5.20;;;3.90;99.90;;;;;;5061962;28;20786;-49
2022/01/21 11:06:07;;;;;;;12.00;5.60;;;4.00;99.90;;;;;;5059592;28;20823;-51
2022/01/21 11:08:34;;;;;;;10.10;5.10;;;4.20;99.90;;;;;;5057396;28;20456;-47
2022/01/21 11:10:59;;;;;;;9.70;4.93;;;4.40;99.90;;;;;;5047399;28;20457;-47
2022/01/21 11:13:27;;;;;;;9.93;5.10;;;4.40;99.90;;;;;;5058455;28;20428;-52
2022/01/21 11:15:57;;;;;;;11.40;4.33;;;4.40;99.90;;;;;;5041491;28;20913;-48
2022/01/21 11:18:23;;;;;;;14.37;5.70;;;4.20;99.90;;;;;;5060744;28;20474;-50
2022/01/21 11:20:57;;;;;;;13.80;5.13;;;4.20;99.90;;;;;;5059813;28;20413;-52
2022/01/21 11:23:27;;;;;;;5.37;4.40;;;4.20;99.90;;;;;;5044762;28;20408;-51
2022/01/21 11:26:00;;;;;;;8.10;4.20;;;4.30;99.90;;;;;;5059480;28;20475;-48
2022/01/21 11:28:38;;;;;;;6.70;4.30;;;4.30;99.90;;;;;;5060541;28;20451;-49
2022/01/21 11:31:05;;;;;;;9.07;4.50;;;4.40;99.90;;;;;;5029020;28;20493;-50
2022/01/21 11:33:31;;;;;;;13.73;4.10;;;4.50;99.90;;;;;;5044587;28;20414;-51
2022/01/21 11:35:56;;;;;;;10.57;4.23;;;4.60;99.90;;;;;;5058569;28;20452;-48
2022/01/21 11:38:28;;;;;;;14.43;4.30;;;4.70;99.90;;;;;;5045742;28;20183;-47
2022/01/21 11:40:54;;;;;;;11.10;4.67;;;4.70;99.90;;;;;;5059041;28;20191;-52
2022/01/21 11:43:22;;;;;;;10.67;5.03;;;4.70;99.90;;;;;;5060156;28;20424;-49
2022/01/21 11:48:52;;;;;;;9.00;4.37;;;4.80;99.90;;;;;;5062558;28;20421;-47
2022/01/21 11:51:32;;;;;;;9.23;4.03;;;4.80;99.90;;;;;;5061061;28;20457;-48
2022/01/21 11:54:05;;;;;;;7.50;3.93;;;4.90;99.90;;;;;;5043250;28;20437;-49
2022/01/21 11:56:36;;;;;;;9.30;4.07;;;4.90;99.90;;;;;;5061859;28;20406;-48
2022/01/21 11:59:09;;;;;;;7.43;4.50;;;5.00;99.90;;;;;;5057271;28;20990;-48
2022/01/21 12:01:40;;;;;;;14.30;4.80;;;5.10;99.90;;;;;;5061211;28;20887;-51
2022/01/21 12:04:06;;;;;;;13.60;6.10;;;5.20;99.90;;;;;;5043649;28;20989;-51
2022/01/21 12:06:36;;;;;;;9.10;4.17;;;5.40;99.90;;;;;;5056439;28;20953;-47
2022/01/21 12:09:08;;;;;;;12.50;4.90;;;5.50;99.90;;;;;;5063940;28;20445;-48
2022/01/21 12:11:38;;;;;;;11.50;4.37;;;5.40;99.90;;;;;;5056262;28;20464;-49
2022/01/21 12:14:38;;;;;;;15.30;7.07;;;5.30;99.90;;;;;;5060910;28;20426;-49
2022/01/21 12:17:18;;;;;;;19.17;5.67;;;5.30;99.90;;;;;;5046152;28;20436;-50
2022/01/21 12:19:44;;;;;;;13.90;5.67;;;5.40;99.90;;;;;;5059156;28;20469;-51
2022/01/21 12:22:16;;;;;;;12.27;4.90;;;5.20;99.90;;;;;;5061228;28;21106;-46
2022/01/21 12:25:06;;;;;;;9.03;5.20;;;5.30;99.90;;;;;;5059924;28;20535;-50
2022/01/21 12:27:33;;;;;;;10.90;5.63;;;5.30;99.90;;;;;;5060583;28;21026;-52
2022/01/21 12:30:18;;;;;;;6.83;5.03;;;5.30;99.90;;;;;;5059816;28;20453;-47
2022/01/21 12:32:51;;;;;;;8.70;4.23;;;5.20;99.90;;;;;;5059850;28;20599;-47
2022/01/21 12:35:19;;;;;;;9.77;4.20;;;5.30;99.90;;;;;;5062892;28;20430;-48
2022/01/21 12:40:52;;;;;;;4.97;3.40;;;5.10;99.90;;;;;;5061435;28;20417;-50
2022/01/21 12:43:39;;;;;;;9.03;3.67;;;5.10;99.90;;;;;;5049874;28;20476;-49
2022/01/21 12:46:09;;;;;;;10.27;4.43;;;5.30;99.90;;;;;;5062891;28;20435;-48
2022/01/21 12:48:35;;;;;;;9.07;4.00;;;5.30;99.90;;;;;;5058741;28;20779;-47
2022/01/21 12:51:57;;;;;;;12.53;5.10;;;5.20;99.90;;;;;;5065747;28;20462;-50
2022/01/21 12:56:53;;;;;;;10.13;4.00;;;5.40;99.90;;;;;;5063817;28;20470;-48
2022/01/21 12:59:20;;;;;;;6.13;3.77;;;5.30;99.90;;;;;;5062844;28;20489;-47
2022/01/21 13:01:47;;;;;;;8.43;3.93;;;5.40;99.90;;;;;;5063499;28;21033;-50
2022/01/21 13:04:25;;;;;;;8.57;3.77;;;5.10;99.90;;;;;;5050877;28;20453;-48
2022/01/21 13:06:55;;;;;;;10.40;3.90;;;5.10;99.90;;;;;;5065693;28;20414;-47
2022/01/21 13:09:49;;;;;;;6.97;4.13;;;5.10;99.90;;;;;;5057472;28;20441;-50
2022/01/21 13:12:16;;;;;;;10.00;4.00;;;5.10;99.90;;;;;;5063129;28;20490;-48
2022/01/21 13:14:52;;;;;;;10.83;4.27;;;5.10;99.90;;;;;;5063515;28;20875;-47
2022/01/21 13:17:18;;;;;;;10.20;4.10;;;5.10;99.90;;;;;;5047718;28;20856;-51
2022/01/21 13:19:52;;;;;;;14.27;4.97;;;5.20;99.90;;;;;;5064701;28;20445;-48
2022/01/21 13:22:36;;;;;;;15.17;4.40;;;5.20;99.90;;;;;;5062192;28;20479;-50
2022/01/21 13:25:09;;;;;;;8.00;4.20;;;5.30;99.90;;;;;;5062344;28;20548;-47
2022/01/21 13:27:43;;;;;;;7.37;3.77;;;5.30;99.90;;;;;;5062575;28;20417;-49
2022/01/21 13:30:11;;;;;;;8.50;3.80;;;5.70;99.90;;;;;;5058990;28;20953;-47
2022/01/21 13:32:37;;;;;;;5.13;3.57;;;6.70;99.90;;;;;;5052766;28;20426;-49
2022/01/21 13:35:17;;;;;;;8.20;3.70;;;7.80;99.90;;;;;;5060925;28;20857;-52
2022/01/21 13:38:01;;;;;;;14.27;4.97;;;8.50;99.90;;;;;;5056787;28;20425;-53
2022/01/21 13:40:30;;;;;;;7.20;4.00;;;8.70;99.90;;;;;;5064378;28;20492;-50
2022/01/21 13:43:06;;;;;;;7.50;3.70;;;8.20;99.90;;;;;;5060949;28;20730;-49
2022/01/21 13:45:32;;;;;;;10.37;5.67;;;8.00;99.90;;;;;;5049356;28;20429;-49
2022/01/21 13:48:03;;;;;;;8.20;3.27;;;8.00;99.90;;;;;;5046899;28;20413;-47
2022/01/21 13:50:30;;;;;;;11.83;3.50;;;7.60;99.90;;;;;;5057356;28;20582;-51
2022/01/21 13:53:03;;;;;;;7.20;3.97;;;7.30;99.90;;;;;;5063573;28;20442;-46